Aviation Digital Data Service (ADDS)

Output produced by METARs form (0416 UTC 19 August 2019)
found at http://www.aviationweather.gov/metar/data/
 
METAR text: EDDW 190350Z 20009KT CAVOK 14/12 Q1011 NOSIG
Conditions at: EDDW (BREMEN , DE) observed 0350 UTC 19 August 2019
Temperature: 14.0°C (57°F)
Dewpoint: 12.0°C (54°F) [RH = 88%]
Pressure (altimeter): 29.85 inches Hg (1011.0 mb)
Winds: from the SSW (200 degrees) at 10 MPH (9 knots; 4.6 m/s)
Visibility: 6 or more miles (10+ km)
Ceiling: ceiling and visibility are OK
Clouds: unknown
Weather: no significant weather observed at this time

METAR text: EDDW 190320Z 21008KT CAVOK 14/13 Q1011
Conditions at: EDDW (BREMEN , DE) observed 0320 UTC 19 August 2019
Temperature: 14.0°C (57°F)
Dewpoint: 13.0°C (55°F) [RH = 94%]
Pressure (altimeter): 29.85 inches Hg (1011.0 mb)
Winds: from the SSW (210 degrees) at 9 MPH (8 knots; 4.1 m/s)
Visibility: 6 or more miles (10+ km)
Ceiling: ceiling and visibility are OK
Clouds: unknown
Weather: no significant weather observed at this time

METAR text: EDDW 190250Z 20007KT CAVOK 14/13 Q1011
Conditions at: EDDW (BREMEN , DE) observed 0250 UTC 19 August 2019
Temperature: 14.0°C (57°F)
Dewpoint: 13.0°C (55°F) [RH = 94%]
Pressure (altimeter): 29.85 inches Hg (1011.0 mb)
Winds: from the SSW (200 degrees) at 8 MPH (7 knots; 3.6 m/s)
Visibility: 6 or more miles (10+ km)
Ceiling: ceiling and visibility are OK
Clouds: unknown
Weather: no significant weather observed at this time

METAR text: EDDW 190220Z 20006KT 9999 FEW040 14/13 Q1010
Conditions at: EDDW (BREMEN , DE) observed 0220 UTC 19 August 2019
Temperature: 14.0°C (57°F)
Dewpoint: 13.0°C (55°F) [RH = 94%]
Pressure (altimeter): 29.82 inches Hg (1010.0 mb)
Winds: from the SSW (200 degrees) at 7 MPH (6 knots; 3.1 m/s)
Visibility: 6 or more miles (10+ km)
Ceiling: at least 12,000 feet AGL
Clouds: few clouds at 4000 feet AGL
Weather: no significant weather observed at this time

METAR text: EDDW 190150Z 21006KT 9999 FEW040 15/14 Q1010
Conditions at: EDDW (BREMEN , DE) observed 0150 UTC 19 August 2019
Temperature: 15.0°C (59°F)
Dewpoint: 14.0°C (57°F) [RH = 94%]
Pressure (altimeter): 29.82 inches Hg (1010.0 mb)
Winds: from the SSW (210 degrees) at 7 MPH (6 knots; 3.1 m/s)
Visibility: 6 or more miles (10+ km)
Ceiling: at least 12,000 feet AGL
Clouds: few clouds at 4000 feet AGL
Weather: no significant weather observed at this time

METAR text: EDDW 190120Z 22006KT 9999 FEW027 15/14 Q1009
Conditions at: EDDW (BREMEN , DE) observed 0120 UTC 19 August 2019
Temperature: 15.0°C (59°F)
Dewpoint: 14.0°C (57°F) [RH = 94%]
Pressure (altimeter): 29.79 inches Hg (1009.0 mb)
Winds: from the SW (220 degrees) at 7 MPH (6 knots; 3.1 m/s)
Visibility: 6 or more miles (10+ km)
Ceiling: at least 12,000 feet AGL
Clouds: few clouds at 2700 feet AGL
Weather: no significant weather observed at this time

METAR text: EDDW 190050Z 21005KT 9999 SCT027 BKN045 15/14 Q1009
Conditions at: EDDW (BREMEN , DE) observed 0050 UTC 19 August 2019
Temperature: 15.0°C (59°F)
Dewpoint: 14.0°C (57°F) [RH = 94%]
Pressure (altimeter): 29.79 inches Hg (1009.0 mb)
Winds: from the SSW (210 degrees) at 6 MPH (5 knots; 2.6 m/s)
Visibility: 6 or more miles (10+ km)
Ceiling: 4500 feet AGL
Clouds: scattered clouds at 2700 feet AGL
broken clouds at 4500 feet AGL
Weather: no significant weather observed at this time

METAR text: EDDW 190020Z 22006KT 7000 FEW034 15/14 Q1009
Conditions at: EDDW (BREMEN , DE) observed 0020 UTC 19 August 2019
Temperature: 15.0°C (59°F)
Dewpoint: 14.0°C (57°F) [RH = 94%]
Pressure (altimeter): 29.79 inches Hg (1009.0 mb)
Winds: from the SW (220 degrees) at 7 MPH (6 knots; 3.1 m/s)
Visibility: 4 miles ( 7 km)
Ceiling: at least 12,000 feet AGL
Clouds: few clouds at 3400 feet AGL
Weather: no significant weather observed at this time

METAR text: EDDW 182350Z 21006KT 8000 FEW030 15/14 Q1009
Conditions at: EDDW (BREMEN , DE) observed 2350 UTC 18 August 2019
Temperature: 15.0°C (59°F)
Dewpoint: 14.0°C (57°F) [RH = 94%]
Pressure (altimeter): 29.79 inches Hg (1009.0 mb)
Winds: from the SSW (210 degrees) at 7 MPH (6 knots; 3.1 m/s)
Visibility: 5 miles ( 8 km)
Ceiling: at least 12,000 feet AGL
Clouds: few clouds at 3000 feet AGL
Weather: no significant weather observed at this time

METAR text: EDDW 182320Z 20006KT 8000 BKN027 15/14 Q1009
Conditions at: EDDW (BREMEN , DE) observed 2320 UTC 18 August 2019
Temperature: 15.0°C (59°F)
Dewpoint: 14.0°C (57°F) [RH = 94%]
Pressure (altimeter): 29.79 inches Hg (1009.0 mb)
Winds: from the SSW (200 degrees) at 7 MPH (6 knots; 3.1 m/s)
Visibility: 5 miles ( 8 km)
Ceiling: 2700 feet AGL
Clouds: broken clouds at 2700 feet AGL
Weather: no significant weather observed at this time

METAR text: EDDW 182250Z 19006KT 8000 NSC 15/14 Q1009
Conditions at: EDDW (BREMEN , DE) observed 2250 UTC 18 August 2019
Temperature: 15.0°C (59°F)
Dewpoint: 14.0°C (57°F) [RH = 94%]
Pressure (altimeter): 29.79 inches Hg (1009.0 mb)
Winds: from the S (190 degrees) at 7 MPH (6 knots; 3.1 m/s)
Visibility: 5 miles ( 8 km)
Ceiling: at least 12,000 feet AGL
Clouds: sky clear below 12,000 feet AGL
Weather: no significant weather observed at this time

METAR text: EDDW 182220Z 20005KT 9999 FEW030 15/14 Q1009
Conditions at: EDDW (BREMEN , DE) observed 2220 UTC 18 August 2019
Temperature: 15.0°C (59°F)
Dewpoint: 14.0°C (57°F) [RH = 94%]
Pressure (altimeter): 29.79 inches Hg (1009.0 mb)
Winds: from the SSW (200 degrees) at 6 MPH (5 knots; 2.6 m/s)
Visibility: 6 or more miles (10+ km)
Ceiling: at least 12,000 feet AGL
Clouds: few clouds at 3000 feet AGL
Weather: no significant weather observed at this time

METAR text: EDDW 182150Z 20006KT 9999 FEW030 15/14 Q1009
Conditions at: EDDW (BREMEN , DE) observed 2150 UTC 18 August 2019
Temperature: 15.0°C (59°F)
Dewpoint: 14.0°C (57°F) [RH = 94%]
Pressure (altimeter): 29.79 inches Hg (1009.0 mb)
Winds: from the SSW (200 degrees) at 7 MPH (6 knots; 3.1 m/s)
Visibility: 6 or more miles (10+ km)
Ceiling: at least 12,000 feet AGL
Clouds: few clouds at 3000 feet AGL
Weather: no significant weather observed at this time

METAR text: EDDW 182120Z 20005KT 9999 BKN030 15/14 Q1009
Conditions at: EDDW (BREMEN , DE) observed 2120 UTC 18 August 2019
Temperature: 15.0°C (59°F)
Dewpoint: 14.0°C (57°F) [RH = 94%]
Pressure (altimeter): 29.79 inches Hg (1009.0 mb)
Winds: from the SSW (200 degrees) at 6 MPH (5 knots; 2.6 m/s)
Visibility: 6 or more miles (10+ km)
Ceiling: 3000 feet AGL
Clouds: broken clouds at 3000 feet AGL
Weather: no significant weather observed at this time

METAR text: EDDW 182050Z 21006KT 180V240 9999 BKN037 16/15 Q1008 NOSIG
Conditions at: EDDW (BREMEN , DE) observed 2050 UTC 18 August 2019
Temperature: 16.0°C (61°F)
Dewpoint: 15.0°C (59°F) [RH = 94%]
Pressure (altimeter): 29.76 inches Hg (1008.0 mb)
Winds: from the SSW (210 degrees) at 7 MPH (6 knots; 3.1 m/s)
Visibility: 6 or more miles (10+ km)
Ceiling: 3700 feet AGL
Clouds: broken clouds at 3700 feet AGL
Weather: no significant weather observed at this time

METAR text: EDDW 182020Z 20005KT 170V230 9999 BKN046 16/15 Q1008 NOSIG
Conditions at: EDDW (BREMEN , DE) observed 2020 UTC 18 August 2019
Temperature: 16.0°C (61°F)
Dewpoint: 15.0°C (59°F) [RH = 94%]
Pressure (altimeter): 29.76 inches Hg (1008.0 mb)
Winds: from the SSW (200 degrees) at 6 MPH (5 knots; 2.6 m/s)
Visibility: 6 or more miles (10+ km)
Ceiling: 4600 feet AGL
Clouds: broken clouds at 4600 feet AGL
Weather: no significant weather observed at this time

METAR text: EDDW 181950Z 20006KT 9999 BKN046 16/15 Q1008 NOSIG
Conditions at: EDDW (BREMEN , DE) observed 1950 UTC 18 August 2019
Temperature: 16.0°C (61°F)
Dewpoint: 15.0°C (59°F) [RH = 94%]
Pressure (altimeter): 29.76 inches Hg (1008.0 mb)
Winds: from the SSW (200 degrees) at 7 MPH (6 knots; 3.1 m/s)
Visibility: 6 or more miles (10+ km)
Ceiling: 4600 feet AGL
Clouds: broken clouds at 4600 feet AGL
Weather: no significant weather observed at this time

METAR text: EDDW 181920Z 21006KT 9999 FEW025 17/15 Q1008 NOSIG
Conditions at: EDDW (BREMEN , DE) observed 1920 UTC 18 August 2019
Temperature: 17.0°C (63°F)
Dewpoint: 15.0°C (59°F) [RH = 88%]
Pressure (altimeter): 29.76 inches Hg (1008.0 mb)
Winds: from the SSW (210 degrees) at 7 MPH (6 knots; 3.1 m/s)
Visibility: 6 or more miles (10+ km)
Ceiling: at least 12,000 feet AGL
Clouds: few clouds at 2500 feet AGL
Weather: no significant weather observed at this time

METAR text: EDDW 181850Z 22007KT 9999 FEW032 17/15 Q1007 NOSIG
Conditions at: EDDW (BREMEN , DE) observed 1850 UTC 18 August 2019
Temperature: 17.0°C (63°F)
Dewpoint: 15.0°C (59°F) [RH = 88%]
Pressure (altimeter): 29.73 inches Hg (1007.0 mb)
Winds: from the SW (220 degrees) at 8 MPH (7 knots; 3.6 m/s)
Visibility: 6 or more miles (10+ km)
Ceiling: at least 12,000 feet AGL
Clouds: few clouds at 3200 feet AGL
Weather: no significant weather observed at this time

METAR text: EDDW 181820Z 22006KT 180V250 9999 FEW022 BKN045 17/14 Q1007 NOSIG
Conditions at: EDDW (BREMEN , DE) observed 1820 UTC 18 August 2019
Temperature: 17.0°C (63°F)
Dewpoint: 14.0°C (57°F) [RH = 82%]
Pressure (altimeter): 29.73 inches Hg (1007.0 mb)
Winds: from the SW (220 degrees) at 7 MPH (6 knots; 3.1 m/s)
Visibility: 6 or more miles (10+ km)
Ceiling: 4500 feet AGL
Clouds: few clouds at 2200 feet AGL
broken clouds at 4500 feet AGL
Weather: no significant weather observed at this time

METAR text: EDDW 181750Z 22007KT 9999 FEW022 BKN043 18/14 Q1006 NOSIG
Conditions at: EDDW (BREMEN , DE) observed 1750 UTC 18 August 2019
Temperature: 18.0°C (64°F)
Dewpoint: 14.0°C (57°F) [RH = 77%]
Pressure (altimeter): 29.70 inches Hg (1006.0 mb)
Winds: from the SW (220 degrees) at 8 MPH (7 knots; 3.6 m/s)
Visibility: 6 or more miles (10+ km)
Ceiling: 4300 feet AGL
Clouds: few clouds at 2200 feet AGL
broken clouds at 4300 feet AGL
Weather: no significant weather observed at this time

METAR text: EDDW 181720Z 24009KT 9999 FEW020 BKN045 18/14 Q1006 NOSIG
Conditions at: EDDW (BREMEN , DE) observed 1720 UTC 18 August 2019
Temperature: 18.0°C (64°F)
Dewpoint: 14.0°C (57°F) [RH = 77%]
Pressure (altimeter): 29.70 inches Hg (1006.0 mb)
Winds: from the WSW (240 degrees) at 10 MPH (9 knots; 4.6 m/s)
Visibility: 6 or more miles (10+ km)
Ceiling: 4500 feet AGL
Clouds: few clouds at 2000 feet AGL
broken clouds at 4500 feet AGL
Weather: no significant weather observed at this time

METAR text: EDDW 181650Z 23009KT 9999 FEW020 19/14 Q1006 NOSIG
Conditions at: EDDW (BREMEN , DE) observed 1650 UTC 18 August 2019
Temperature: 19.0°C (66°F)
Dewpoint: 14.0°C (57°F) [RH = 73%]
Pressure (altimeter): 29.70 inches Hg (1006.0 mb)
Winds: from the SW (230 degrees) at 10 MPH (9 knots; 4.6 m/s)
Visibility: 6 or more miles (10+ km)
Ceiling: at least 12,000 feet AGL
Clouds: few clouds at 2000 feet AGL
Weather: no significant weather observed at this time

METAR text: EDDW 181620Z 24008KT 9999 SCT020 19/14 Q1006 NOSIG
Conditions at: EDDW (BREMEN , DE) observed 1620 UTC 18 August 2019
Temperature: 19.0°C (66°F)
Dewpoint: 14.0°C (57°F) [RH = 73%]
Pressure (altimeter): 29.70 inches Hg (1006.0 mb)
Winds: from the WSW (240 degrees) at 9 MPH (8 knots; 4.1 m/s)
Visibility: 6 or more miles (10+ km)
Ceiling: at least 12,000 feet AGL
Clouds: scattered clouds at 2000 feet AGL
Weather: no significant weather observed at this time

METAR text: EDDW 181550Z 24008KT 210V270 9999 SCT018 18/14 Q1006 NOSIG
Conditions at: EDDW (BREMEN , DE) observed 1550 UTC 18 August 2019
Temperature: 18.0°C (64°F)
Dewpoint: 14.0°C (57°F) [RH = 77%]
Pressure (altimeter): 29.70 inches Hg (1006.0 mb)
Winds: from the WSW (240 degrees) at 9 MPH (8 knots; 4.1 m/s)
Visibility: 6 or more miles (10+ km)
Ceiling: at least 12,000 feet AGL
Clouds: scattered clouds at 1800 feet AGL
Weather: no significant weather observed at this time

METAR text: EDDW 181520Z 25008KT 9999 FEW018 BKN044 18/14 Q1005 NOSIG
Conditions at: EDDW (BREMEN , DE) observed 1520 UTC 18 August 2019
Temperature: 18.0°C (64°F)
Dewpoint: 14.0°C (57°F) [RH = 77%]
Pressure (altimeter): 29.68 inches Hg (1005.0 mb)
Winds: from the WSW (250 degrees) at 9 MPH (8 knots; 4.1 m/s)
Visibility: 6 or more miles (10+ km)
Ceiling: 4400 feet AGL
Clouds: few clouds at 1800 feet AGL
broken clouds at 4400 feet AGL
Weather: no significant weather observed at this time

METAR text: EDDW 181450Z 24007KT 210V270 9999 FEW015 BKN037 18/14 Q1005 NOSIG
Conditions at: EDDW (BREMEN , DE) observed 1450 UTC 18 August 2019
Temperature: 18.0°C (64°F)
Dewpoint: 14.0°C (57°F) [RH = 77%]
Pressure (altimeter): 29.68 inches Hg (1005.0 mb)
Winds: from the WSW (240 degrees) at 8 MPH (7 knots; 3.6 m/s)
Visibility: 6 or more miles (10+ km)
Ceiling: 3700 feet AGL
Clouds: few clouds at 1500 feet AGL
broken clouds at 3700 feet AGL
Weather: no significant weather observed at this time

METAR text: EDDW 181420Z 22007KT 190V260 9999 FEW014 BKN035 18/14 Q1005 NOSIG
Conditions at: EDDW (BREMEN , DE) observed 1420 UTC 18 August 2019
Temperature: 18.0°C (64°F)
Dewpoint: 14.0°C (57°F) [RH = 77%]
Pressure (altimeter): 29.68 inches Hg (1005.0 mb)
Winds: from the SW (220 degrees) at 8 MPH (7 knots; 3.6 m/s)
Visibility: 6 or more miles (10+ km)
Ceiling: 3500 feet AGL
Clouds: few clouds at 1400 feet AGL
broken clouds at 3500 feet AGL
Weather: no significant weather observed at this time

METAR text: EDDW 181350Z 22006KT 180V250 9999 FEW012 BKN035 18/14 Q1004 NOSIG
Conditions at: EDDW (BREMEN , DE) observed 1350 UTC 18 August 2019
Temperature: 18.0°C (64°F)
Dewpoint: 14.0°C (57°F) [RH = 77%]
Pressure (altimeter): 29.65 inches Hg (1004.0 mb)
Winds: from the SW (220 degrees) at 7 MPH (6 knots; 3.1 m/s)
Visibility: 6 or more miles (10+ km)
Ceiling: 3500 feet AGL
Clouds: few clouds at 1200 feet AGL
broken clouds at 3500 feet AGL
Weather: no significant weather observed at this time

METAR text: EDDW 181320Z 21007KT 180V240 9999 FEW012 BKN025 17/14 Q1004 TEMPO BKN012
Conditions at: EDDW (BREMEN , DE) observed 1320 UTC 18 August 2019
Temperature: 17.0°C (63°F)
Dewpoint: 14.0°C (57°F) [RH = 82%]
Pressure (altimeter): 29.65 inches Hg (1004.0 mb)
Winds: from the SSW (210 degrees) at 8 MPH (7 knots; 3.6 m/s)
Visibility: 6 or more miles (10+ km)
Ceiling: 2500 feet AGL
Clouds: few clouds at 1200 feet AGL
broken clouds at 2500 feet AGL
Weather: no significant weather observed at this time

METAR text: EDDW 181250Z 20008KT 9999 -RA SCT012 BKN022 16/14 Q1004 TEMPO BKN012
Conditions at: EDDW (BREMEN , DE) observed 1250 UTC 18 August 2019
Temperature: 16.0°C (61°F)
Dewpoint: 14.0°C (57°F) [RH = 88%]
Pressure (altimeter): 29.65 inches Hg (1004.0 mb)
Winds: from the SSW (200 degrees) at 9 MPH (8 knots; 4.1 m/s)
Visibility: 6 or more miles (10+ km)
Ceiling: 2200 feet AGL
Clouds: scattered clouds at 1200 feet AGL
broken clouds at 2200 feet AGL
Weather: -RA  (light rain)

METAR text: EDDW 181220Z 19008KT 9999 FEW018 BKN026 18/14 Q1004 NOSIG
Conditions at: EDDW (BREMEN , DE) observed 1220 UTC 18 August 2019
Temperature: 18.0°C (64°F)
Dewpoint: 14.0°C (57°F) [RH = 77%]
Pressure (altimeter): 29.65 inches Hg (1004.0 mb)
Winds: from the S (190 degrees) at 9 MPH (8 knots; 4.1 m/s)
Visibility: 6 or more miles (10+ km)
Ceiling: 2600 feet AGL
Clouds: few clouds at 1800 feet AGL
broken clouds at 2600 feet AGL
Weather: no significant weather observed at this time

METAR text: EDDW 181150Z 20009KT 170V230 9999 SCT018 18/14 Q1004 NOSIG
Conditions at: EDDW (BREMEN , DE) observed 1150 UTC 18 August 2019
Temperature: 18.0°C (64°F)
Dewpoint: 14.0°C (57°F) [RH = 77%]
Pressure (altimeter): 29.65 inches Hg (1004.0 mb)
Winds: from the SSW (200 degrees) at 10 MPH (9 knots; 4.6 m/s)
Visibility: 6 or more miles (10+ km)
Ceiling: at least 12,000 feet AGL
Clouds: scattered clouds at 1800 feet AGL
Weather: no significant weather observed at this time

METAR text: EDDW 181120Z 20008KT 9999 SCT013 17/14 Q1005 NOSIG
Conditions at: EDDW (BREMEN , DE) observed 1120 UTC 18 August 2019
Temperature: 17.0°C (63°F)
Dewpoint: 14.0°C (57°F) [RH = 82%]
Pressure (altimeter): 29.68 inches Hg (1005.0 mb)
Winds: from the SSW (200 degrees) at 9 MPH (8 knots; 4.1 m/s)
Visibility: 6 or more miles (10+ km)
Ceiling: at least 12,000 feet AGL
Clouds: scattered clouds at 1300 feet AGL
Weather: no significant weather observed at this time

METAR text: EDDW 181050Z 21006KT 170V230 9999 -RA SCT009 BKN048 17/15 Q1005 NOSIG
Conditions at: EDDW (BREMEN , DE) observed 1050 UTC 18 August 2019
Temperature: 17.0°C (63°F)
Dewpoint: 15.0°C (59°F) [RH = 88%]
Pressure (altimeter): 29.68 inches Hg (1005.0 mb)
Winds: from the SSW (210 degrees) at 7 MPH (6 knots; 3.1 m/s)
Visibility: 6 or more miles (10+ km)
Ceiling: 4800 feet AGL
Clouds: scattered clouds at 900 feet AGL
broken clouds at 4800 feet AGL
Weather: -RA  (light rain)

METAR text: EDDW 181020Z 21005KT 9999 -RA SCT008 BKN020 16/15 Q1005 NOSIG
Conditions at: EDDW (BREMEN , DE) observed 1020 UTC 18 August 2019
Temperature: 16.0°C (61°F)
Dewpoint: 15.0°C (59°F) [RH = 94%]
Pressure (altimeter): 29.68 inches Hg (1005.0 mb)
Winds: from the SSW (210 degrees) at 6 MPH (5 knots; 2.6 m/s)
Visibility: 6 or more miles (10+ km)
Ceiling: 2000 feet AGL
Clouds: scattered clouds at 800 feet AGL
broken clouds at 2000 feet AGL
Weather: -RA  (light rain)

METAR text: EDDW 180950Z 20006KT 9999 -RA BKN008 SCT020 16/15 Q1005 BECMG BKN020
Conditions at: EDDW (BREMEN , DE) observed 0950 UTC 18 August 2019
Temperature: 16.0°C (61°F)
Dewpoint: 15.0°C (59°F) [RH = 94%]
Pressure (altimeter): 29.68 inches Hg (1005.0 mb)
Winds: from the SSW (200 degrees) at 7 MPH (6 knots; 3.1 m/s)
Visibility: 6 or more miles (10+ km)
Ceiling: 800 feet AGL
Clouds: broken clouds at 800 feet AGL
scattered clouds at 2000 feet AGL
Weather: -RA  (light rain)

METAR text: EDDW 180920Z 18004KT 140V220 9999 -RA BKN007 SCT018 16/15 Q1005 BECMG BKN020
Conditions at: EDDW (BREMEN , DE) observed 0920 UTC 18 August 2019
Temperature: 16.0°C (61°F)
Dewpoint: 15.0°C (59°F) [RH = 94%]
Pressure (altimeter): 29.68 inches Hg (1005.0 mb)
Winds: from the S (180 degrees) at 5 MPH (4 knots; 2.1 m/s)
Visibility: 6 or more miles (10+ km)
Ceiling: 700 feet AGL
Clouds: broken clouds at 700 feet AGL
scattered clouds at 1800 feet AGL
Weather: -RA  (light rain)

METAR text: EDDW 180850Z VRB02KT 9999 -RA FEW007 SCT018 BKN028 15/14 Q1005 RERA TEMPO 4000 RA BKN007
Conditions at: EDDW (BREMEN , DE) observed 0850 UTC 18 August 2019
Temperature: 15.0°C (59°F)
Dewpoint: 14.0°C (57°F) [RH = 94%]
Pressure (altimeter): 29.68 inches Hg (1005.0 mb)
Winds: variable direction winds at 2 MPH (2 knots; 1.0 m/s)
Visibility: 6 or more miles (10+ km)
Ceiling: 2800 feet AGL
Clouds: few clouds at 700 feet AGL
scattered clouds at 1800 feet AGL
broken clouds at 2800 feet AGL
Weather: -RA  (light rain)

METAR text: EDDW 180820Z 22005KT 170V260 6000 RA BKN007 OVC028 15/14 Q1005 TEMPO 4000
Conditions at: EDDW (BREMEN , DE) observed 0820 UTC 18 August 2019
Temperature: 15.0°C (59°F)
Dewpoint: 14.0°C (57°F) [RH = 94%]
Pressure (altimeter): 29.68 inches Hg (1005.0 mb)
Winds: from the SW (220 degrees) at 6 MPH (5 knots; 2.6 m/s)
Visibility: 4 miles ( 6 km)
Ceiling: 700 feet AGL
Clouds: broken clouds at 700 feet AGL
overcast cloud deck at 2800 feet AGL
Weather: RA  (moderate rain)

METAR text: EDDW 180750Z 20005KT 6000 RA FEW007 OVC038 15/14 Q1005 TEMPO 4000 BKN007
Conditions at: EDDW (BREMEN , DE) observed 0750 UTC 18 August 2019
Temperature: 15.0°C (59°F)
Dewpoint: 14.0°C (57°F) [RH = 94%]
Pressure (altimeter): 29.68 inches Hg (1005.0 mb)
Winds: from the SSW (200 degrees) at 6 MPH (5 knots; 2.6 m/s)
Visibility: 4 miles ( 6 km)
Ceiling: 3800 feet AGL
Clouds: few clouds at 700 feet AGL
overcast cloud deck at 3800 feet AGL
Weather: RA  (moderate rain)

METAR text: EDDW 180720Z 20003KT 170V240 8000 RA SCT017 OVC040 15/14 Q1006 TEMPO 4000 BKN007
Conditions at: EDDW (BREMEN , DE) observed 0720 UTC 18 August 2019
Temperature: 15.0°C (59°F)
Dewpoint: 14.0°C (57°F) [RH = 94%]
Pressure (altimeter): 29.70 inches Hg (1006.0 mb)
Winds: from the SSW (200 degrees) at 3 MPH (3 knots; 1.5 m/s)
Visibility: 5 miles ( 8 km)
Ceiling: 4000 feet AGL
Clouds: scattered clouds at 1700 feet AGL
overcast cloud deck at 4000 feet AGL
Weather: RA  (moderate rain)

METAR text: EDDW 180650Z 20004KT 9999 RA FEW007 OVC045 15/13 Q1005 TEMPO 4000 BKN007
Conditions at: EDDW (BREMEN , DE) observed 0650 UTC 18 August 2019
Temperature: 15.0°C (59°F)
Dewpoint: 13.0°C (55°F) [RH = 88%]
Pressure (altimeter): 29.68 inches Hg (1005.0 mb)
Winds: from the SSW (200 degrees) at 5 MPH (4 knots; 2.1 m/s)
Visibility: 6 or more miles (10+ km)
Ceiling: 4500 feet AGL
Clouds: few clouds at 700 feet AGL
overcast cloud deck at 4500 feet AGL
Weather: RA  (moderate rain)

METAR text: EDDW 180620Z 20007KT 9000 -RA FEW012 SCT048 16/15 Q1005 TEMPO RA BKN012
Conditions at: EDDW (BREMEN , DE) observed 0620 UTC 18 August 2019
Temperature: 16.0°C (61°F)
Dewpoint: 15.0°C (59°F) [RH = 94%]
Pressure (altimeter): 29.68 inches Hg (1005.0 mb)
Winds: from the SSW (200 degrees) at 8 MPH (7 knots; 3.6 m/s)
Visibility: 6 miles ( 9 km)
Ceiling: at least 12,000 feet AGL
Clouds: few clouds at 1200 feet AGL
scattered clouds at 4800 feet AGL
Weather: -RA  (light rain)

METAR text: EDDW 180550Z 17005KT 9000 -RA SCT025 16/15 Q1005 TEMPO RA BKN012
Conditions at: EDDW (BREMEN , DE) observed 0550 UTC 18 August 2019
Temperature: 16.0°C (61°F)
Dewpoint: 15.0°C (59°F) [RH = 94%]
Pressure (altimeter): 29.68 inches Hg (1005.0 mb)
Winds: from the S (170 degrees) at 6 MPH (5 knots; 2.6 m/s)
Visibility: 6 miles ( 9 km)
Ceiling: at least 12,000 feet AGL
Clouds: scattered clouds at 2500 feet AGL
Weather: -RA  (light rain)

METAR text: EDDW 180520Z 16006KT 9000 -RA FEW022 SCT045 16/16 Q1005 BECMG RA BKN012
Conditions at: EDDW (BREMEN , DE) observed 0520 UTC 18 August 2019
Temperature: 16.0°C (61°F)
Dewpoint: 16.0°C (61°F) [RH = 100%]
Pressure (altimeter): 29.68 inches Hg (1005.0 mb)
Winds: from the SSE (160 degrees) at 7 MPH (6 knots; 3.1 m/s)
Visibility: 6 miles ( 9 km)
Ceiling: at least 12,000 feet AGL
Clouds: few clouds at 2200 feet AGL
scattered clouds at 4500 feet AGL
Weather: -RA  (light rain)

METAR text: EDDW 180450Z 17004KT 9000 -RA FEW022 SCT040 16/16 Q1005 BECMG RA BKN012
Conditions at: EDDW (BREMEN , DE) observed 0450 UTC 18 August 2019
Temperature: 16.0°C (61°F)
Dewpoint: 16.0°C (61°F) [RH = 100%]
Pressure (altimeter): 29.68 inches Hg (1005.0 mb)
Winds: from the S (170 degrees) at 5 MPH (4 knots; 2.1 m/s)
Visibility: 6 miles ( 9 km)
Ceiling: at least 12,000 feet AGL
Clouds: few clouds at 2200 feet AGL
scattered clouds at 4000 feet AGL
Weather: -RA  (light rain)

METAR text: EDDW 180420Z 20004KT 9999 -RA SCT033 16/16 Q1006 BECMG RA BKN012
Conditions at: EDDW (BREMEN , DE) observed 0420 UTC 18 August 2019
Temperature: 16.0°C (61°F)
Dewpoint: 16.0°C (61°F) [RH = 100%]
Pressure (altimeter): 29.70 inches Hg (1006.0 mb)
Winds: from the SSW (200 degrees) at 5 MPH (4 knots; 2.1 m/s)
Visibility: 6 or more miles (10+ km)
Ceiling: at least 12,000 feet AGL
Clouds: scattered clouds at 3300 feet AGL
Weather: -RA  (light rain)

METAR text: EDDW 180350Z 21003KT 9999 -RA BKN033 16/16 Q1006 BECMG RA
Conditions at: EDDW (BREMEN , DE) observed 0350 UTC 18 August 2019
Temperature: 16.0°C (61°F)
Dewpoint: 16.0°C (61°F) [RH = 100%]
Pressure (altimeter): 29.70 inches Hg (1006.0 mb)
Winds: from the SSW (210 degrees) at 3 MPH (3 knots; 1.5 m/s)
Visibility: 6 or more miles (10+ km)
Ceiling: 3300 feet AGL
Clouds: broken clouds at 3300 feet AGL
Weather: -RA  (light rain)

METAR text: EDDW 180320Z 22004KT 9999 BKN030 17/16 Q1006
Conditions at: EDDW (BREMEN , DE) observed 0320 UTC 18 August 2019
Temperature: 17.0°C (63°F)
Dewpoint: 16.0°C (61°F) [RH = 94%]
Pressure (altimeter): 29.70 inches Hg (1006.0 mb)
Winds: from the SW (220 degrees) at 5 MPH (4 knots; 2.1 m/s)
Visibility: 6 or more miles (10+ km)
Ceiling: 3000 feet AGL
Clouds: broken clouds at 3000 feet AGL
Weather: no significant weather observed at this time

METAR text: EDDW 180250Z 20004KT 9999 FEW030 16/16 Q1005
Conditions at: EDDW (BREMEN , DE) observed 0250 UTC 18 August 2019
Temperature: 16.0°C (61°F)
Dewpoint: 16.0°C (61°F) [RH = 100%]
Pressure (altimeter): 29.68 inches Hg (1005.0 mb)
Winds: from the SSW (200 degrees) at 5 MPH (4 knots; 2.1 m/s)
Visibility: 6 or more miles (10+ km)
Ceiling: at least 12,000 feet AGL
Clouds: few clouds at 3000 feet AGL
Weather: no significant weather observed at this time

METAR text: EDDW 180220Z 21004KT CAVOK 16/16 Q1006
Conditions at: EDDW (BREMEN , DE) observed 0220 UTC 18 August 2019
Temperature: 16.0°C (61°F)
Dewpoint: 16.0°C (61°F) [RH = 100%]
Pressure (altimeter): 29.70 inches Hg (1006.0 mb)
Winds: from the SSW (210 degrees) at 5 MPH (4 knots; 2.1 m/s)
Visibility: 6 or more miles (10+ km)
Ceiling: ceiling and visibility are OK
Clouds: unknown
Weather: no significant weather observed at this time

METAR text: EDDW 180150Z 24004KT CAVOK 16/16 Q1006
Conditions at: EDDW (BREMEN , DE) observed 0150 UTC 18 August 2019
Temperature: 16.0°C (61°F)
Dewpoint: 16.0°C (61°F) [RH = 100%]
Pressure (altimeter): 29.70 inches Hg (1006.0 mb)
Winds: from the WSW (240 degrees) at 5 MPH (4 knots; 2.1 m/s)
Visibility: 6 or more miles (10+ km)
Ceiling: ceiling and visibility are OK
Clouds: unknown
Weather: no significant weather observed at this time

METAR text: EDDW 180120Z 21004KT CAVOK 17/16 Q1006
Conditions at: EDDW (BREMEN , DE) observed 0120 UTC 18 August 2019
Temperature: 17.0°C (63°F)
Dewpoint: 16.0°C (61°F) [RH = 94%]
Pressure (altimeter): 29.70 inches Hg (1006.0 mb)
Winds: from the SSW (210 degrees) at 5 MPH (4 knots; 2.1 m/s)
Visibility: 6 or more miles (10+ km)
Ceiling: ceiling and visibility are OK
Clouds: unknown
Weather: no significant weather observed at this time

METAR text: EDDW 180050Z 22004KT CAVOK 17/16 Q1006
Conditions at: EDDW (BREMEN , DE) observed 0050 UTC 18 August 2019
Temperature: 17.0°C (63°F)
Dewpoint: 16.0°C (61°F) [RH = 94%]
Pressure (altimeter): 29.70 inches Hg (1006.0 mb)
Winds: from the SW (220 degrees) at 5 MPH (4 knots; 2.1 m/s)
Visibility: 6 or more miles (10+ km)
Ceiling: ceiling and visibility are OK
Clouds: unknown
Weather: no significant weather observed at this time

METAR text: EDDW 180020Z 23005KT 9999 FEW025 17/16 Q1006
Conditions at: EDDW (BREMEN , DE) observed 0020 UTC 18 August 2019
Temperature: 17.0°C (63°F)
Dewpoint: 16.0°C (61°F) [RH = 94%]
Pressure (altimeter): 29.70 inches Hg (1006.0 mb)
Winds: from the SW (230 degrees) at 6 MPH (5 knots; 2.6 m/s)
Visibility: 6 or more miles (10+ km)
Ceiling: at least 12,000 feet AGL
Clouds: few clouds at 2500 feet AGL
Weather: no significant weather observed at this time

METAR text: EDDW 172350Z 23006KT 9999 FEW025 17/16 Q1006
Conditions at: EDDW (BREMEN , DE) observed 2350 UTC 17 August 2019
Temperature: 17.0°C (63°F)
Dewpoint: 16.0°C (61°F) [RH = 94%]
Pressure (altimeter): 29.70 inches Hg (1006.0 mb)
Winds: from the SW (230 degrees) at 7 MPH (6 knots; 3.1 m/s)
Visibility: 6 or more miles (10+ km)
Ceiling: at least 12,000 feet AGL
Clouds: few clouds at 2500 feet AGL
Weather: no significant weather observed at this time

METAR text: EDDW 172320Z 23007KT 9999 FEW010 BKN028 17/15 Q1006
Conditions at: EDDW (BREMEN , DE) observed 2320 UTC 17 August 2019
Temperature: 17.0°C (63°F)
Dewpoint: 15.0°C (59°F) [RH = 88%]
Pressure (altimeter): 29.70 inches Hg (1006.0 mb)
Winds: from the SW (230 degrees) at 8 MPH (7 knots; 3.6 m/s)
Visibility: 6 or more miles (10+ km)
Ceiling: 2800 feet AGL
Clouds: few clouds at 1000 feet AGL
broken clouds at 2800 feet AGL
Weather: no significant weather observed at this time

METAR text: EDDW 172250Z 21009KT 9999 FEW010 BKN030 18/15 Q1006
Conditions at: EDDW (BREMEN , DE) observed 2250 UTC 17 August 2019
Temperature: 18.0°C (64°F)
Dewpoint: 15.0°C (59°F) [RH = 83%]
Pressure (altimeter): 29.70 inches Hg (1006.0 mb)
Winds: from the SSW (210 degrees) at 10 MPH (9 knots; 4.6 m/s)
Visibility: 6 or more miles (10+ km)
Ceiling: 3000 feet AGL
Clouds: few clouds at 1000 feet AGL
broken clouds at 3000 feet AGL
Weather: no significant weather observed at this time

METAR text: EDDW 172220Z 18009KT 9999 FEW010 BKN038 18/17 Q1006
Conditions at: EDDW (BREMEN , DE) observed 2220 UTC 17 August 2019
Temperature: 18.0°C (64°F)
Dewpoint: 17.0°C (63°F) [RH = 94%]
Pressure (altimeter): 29.70 inches Hg (1006.0 mb)
Winds: from the S (180 degrees) at 10 MPH (9 knots; 4.6 m/s)
Visibility: 6 or more miles (10+ km)
Ceiling: 3800 feet AGL
Clouds: few clouds at 1000 feet AGL
broken clouds at 3800 feet AGL
Weather: no significant weather observed at this time

METAR text: EDDW 172150Z 19009KT 150V210 9999 -RA FEW012 BKN038 18/17 Q1006
Conditions at: EDDW (BREMEN , DE) observed 2150 UTC 17 August 2019
Temperature: 18.0°C (64°F)
Dewpoint: 17.0°C (63°F) [RH = 94%]
Pressure (altimeter): 29.70 inches Hg (1006.0 mb)
Winds: from the S (190 degrees) at 10 MPH (9 knots; 4.6 m/s)
Visibility: 6 or more miles (10+ km)
Ceiling: 3800 feet AGL
Clouds: few clouds at 1200 feet AGL
broken clouds at 3800 feet AGL
Weather: -RA  (light rain)

METAR text: EDDW 172120Z 18011KT 9999 -RA FEW009 BKN038 18/17 Q1006
Conditions at: EDDW (BREMEN , DE) observed 2120 UTC 17 August 2019
Temperature: 18.0°C (64°F)
Dewpoint: 17.0°C (63°F) [RH = 94%]
Pressure (altimeter): 29.70 inches Hg (1006.0 mb)
Winds: from the S (180 degrees) at 13 MPH (11 knots; 5.7 m/s)
Visibility: 6 or more miles (10+ km)
Ceiling: 3800 feet AGL
Clouds: few clouds at 900 feet AGL
broken clouds at 3800 feet AGL
Weather: -RA  (light rain)

METAR text: EDDW 172050Z 19009KT 170V230 9999 FEW009 SCT045 18/17 Q1006 NOSIG
Conditions at: EDDW (BREMEN , DE) observed 2050 UTC 17 August 2019
Temperature: 18.0°C (64°F)
Dewpoint: 17.0°C (63°F) [RH = 94%]
Pressure (altimeter): 29.70 inches Hg (1006.0 mb)
Winds: from the S (190 degrees) at 10 MPH (9 knots; 4.6 m/s)
Visibility: 6 or more miles (10+ km)
Ceiling: at least 12,000 feet AGL
Clouds: few clouds at 900 feet AGL
scattered clouds at 4500 feet AGL
Weather: no significant weather observed at this time

METAR text: EDDW 172020Z 20008KT 9999 -RA BKN012 18/17 Q1007 BECMG SCT015
Conditions at: EDDW (BREMEN , DE) observed 2020 UTC 17 August 2019
Temperature: 18.0°C (64°F)
Dewpoint: 17.0°C (63°F) [RH = 94%]
Pressure (altimeter): 29.73 inches Hg (1007.0 mb)
Winds: from the SSW (200 degrees) at 9 MPH (8 knots; 4.1 m/s)
Visibility: 6 or more miles (10+ km)
Ceiling: 1200 feet AGL
Clouds: broken clouds at 1200 feet AGL
Weather: -RA  (light rain)

METAR text: EDDW 171950Z 20011KT 9999 SCT012 18/17 Q1007 TEMPO BKN012
Conditions at: EDDW (BREMEN , DE) observed 1950 UTC 17 August 2019
Temperature: 18.0°C (64°F)
Dewpoint: 17.0°C (63°F) [RH = 94%]
Pressure (altimeter): 29.73 inches Hg (1007.0 mb)
Winds: from the SSW (200 degrees) at 13 MPH (11 knots; 5.7 m/s)
Visibility: 6 or more miles (10+ km)
Ceiling: at least 12,000 feet AGL
Clouds: scattered clouds at 1200 feet AGL
Weather: no significant weather observed at this time

METAR text: EDDW 171920Z 18011KT 9999 -RA FEW012 BKN021 18/17 Q1006 TEMPO BKN012
Conditions at: EDDW (BREMEN , DE) observed 1920 UTC 17 August 2019
Temperature: 18.0°C (64°F)
Dewpoint: 17.0°C (63°F) [RH = 94%]
Pressure (altimeter): 29.70 inches Hg (1006.0 mb)
Winds: from the S (180 degrees) at 13 MPH (11 knots; 5.7 m/s)
Visibility: 6 or more miles (10+ km)
Ceiling: 2100 feet AGL
Clouds: few clouds at 1200 feet AGL
broken clouds at 2100 feet AGL
Weather: -RA  (light rain)

METAR text: EDDW 171850Z 18004KT 160V220 9999 -SHRA FEW017 BKN022 19/17 Q1006 TEMPO BKN012
Conditions at: EDDW (BREMEN , DE) observed 1850 UTC 17 August 2019
Temperature: 19.0°C (66°F)
Dewpoint: 17.0°C (63°F) [RH = 88%]
Pressure (altimeter): 29.70 inches Hg (1006.0 mb)
Winds: from the S (180 degrees) at 5 MPH (4 knots; 2.1 m/s)
Visibility: 6 or more miles (10+ km)
Ceiling: 2200 feet AGL
Clouds: few clouds at 1700 feet AGL
broken clouds at 2200 feet AGL
Weather: -SHRA  (light rain showers)

METAR text: EDDW 171820Z 18007KT 9999 FEW017 BKN025 19/17 Q1006 TEMPO BKN012
Conditions at: EDDW (BREMEN , DE) observed 1820 UTC 17 August 2019
Temperature: 19.0°C (66°F)
Dewpoint: 17.0°C (63°F) [RH = 88%]
Pressure (altimeter): 29.70 inches Hg (1006.0 mb)
Winds: from the S (180 degrees) at 8 MPH (7 knots; 3.6 m/s)
Visibility: 6 or more miles (10+ km)
Ceiling: 2500 feet AGL
Clouds: few clouds at 1700 feet AGL
broken clouds at 2500 feet AGL
Weather: no significant weather observed at this time

METAR text: EDDW 171750Z 20007KT 9999 FEW014 BKN024 20/17 Q1007 TEMPO BKN012
Conditions at: EDDW (BREMEN , DE) observed 1750 UTC 17 August 2019
Temperature: 20.0°C (68°F)
Dewpoint: 17.0°C (63°F) [RH = 83%]
Pressure (altimeter): 29.73 inches Hg (1007.0 mb)
Winds: from the SSW (200 degrees) at 8 MPH (7 knots; 3.6 m/s)
Visibility: 6 or more miles (10+ km)
Ceiling: 2400 feet AGL
Clouds: few clouds at 1400 feet AGL
broken clouds at 2400 feet AGL
Weather: no significant weather observed at this time

METAR text: EDDW 171720Z 21008KT 9999 SCT014 BKN024 20/17 Q1007 TEMPO BKN012
Conditions at: EDDW (BREMEN , DE) observed 1720 UTC 17 August 2019
Temperature: 20.0°C (68°F)
Dewpoint: 17.0°C (63°F) [RH = 83%]
Pressure (altimeter): 29.73 inches Hg (1007.0 mb)
Winds: from the SSW (210 degrees) at 9 MPH (8 knots; 4.1 m/s)
Visibility: 6 or more miles (10+ km)
Ceiling: 2400 feet AGL
Clouds: scattered clouds at 1400 feet AGL
broken clouds at 2400 feet AGL
Weather: no significant weather observed at this time

METAR text: EDDW 171650Z 21009KT 9999 BKN014 20/17 Q1007 BECMG BKN015
Conditions at: EDDW (BREMEN , DE) observed 1650 UTC 17 August 2019
Temperature: 20.0°C (68°F)
Dewpoint: 17.0°C (63°F) [RH = 83%]
Pressure (altimeter): 29.73 inches Hg (1007.0 mb)
Winds: from the SSW (210 degrees) at 10 MPH (9 knots; 4.6 m/s)
Visibility: 6 or more miles (10+ km)
Ceiling: 1400 feet AGL
Clouds: broken clouds at 1400 feet AGL
Weather: no significant weather observed at this time

METAR text: EDDW 171620Z 22011KT 9999 BKN014 20/17 Q1007 BECMG BKN015
Conditions at: EDDW (BREMEN , DE) observed 1620 UTC 17 August 2019
Temperature: 20.0°C (68°F)
Dewpoint: 17.0°C (63°F) [RH = 83%]
Pressure (altimeter): 29.73 inches Hg (1007.0 mb)
Winds: from the SW (220 degrees) at 13 MPH (11 knots; 5.7 m/s)
Visibility: 6 or more miles (10+ km)
Ceiling: 1400 feet AGL
Clouds: broken clouds at 1400 feet AGL
Weather: no significant weather observed at this time

Forecast for: EDDW (BREMEN , DE)
Text: TAF EDDW 182300Z 1900/1924 21006KT 9999 FEW040
Forecast period: 0000 to 0600 UTC 19 August 2019
Forecast type: FROM: standard forecast or significant change
Winds: from the SSW (210 degrees) at 7 MPH (6 knots; 3.1 m/s)
Visibility: 6 or more miles 10+ km)
Ceiling: at least 12,000 feet AGL
Clouds: few clouds at 4000 feet AGL
Weather: no significant weather forecast for this period
Text: PROB40
Forecast period: 0100 to 0600 UTC 19 August 2019
Forecast type: TEMPORARY: The following changes expected for less than half the time period
Visibility: 2.49 miles (4.01 km)
Ceiling: 500 feet AGL
Clouds: broken clouds at 500 feet AGL
Weather: BR  (mist)
Text: TEMPO 1901/1906 4000 BR BKN005
Forecast period: 0600 to 1600 UTC 19 August 2019
Forecast type: BECOMING: Conditions expected to become as follows by 0800 UTC 19 August 2019
Winds: from the WSW (240 degrees) at 14 MPH (12 knots; 6.2 m/s)
Visibility: 6 or more miles 10+ km)
Ceiling: at least 12,000 feet AGL
Clouds: few clouds at 4000 feet AGL
Weather: no significant weather forecast for this period
Text: BECMG 1906/1908 24012KT
Forecast period: 0800 to 1600 UTC 19 August 2019
Forecast type: TEMPORARY: The following changes expected for less than half the time period
Winds: from the WSW (240 degrees) at 17 MPH (15 knots; 7.7 m/s)
gusting to 29 MPH (25 knots; 12.9 m/s)
Visibility: missing
Ceiling: unknown
Clouds: missing
Weather: no significant weather forecast for this period
Text: TEMPO 1908/1916 24015G25KT
Forecast period: 1600 UTC 19 August 2019 to 0000 UTC 20 August 2019
Forecast type: BECOMING: Conditions expected to become as follows by 1800 UTC 19 August 2019
Winds: from the SSW (210 degrees) at 6 MPH (5 knots; 2.6 m/s)
Visibility: 6 or more miles 10+ km)
Ceiling: at least 12,000 feet AGL
Clouds: few clouds at 4000 feet AGL
Weather: no significant weather forecast for this period